createdAt,value
2019-04-22T00:01:23.148Z,64.84
2019-04-22T00:03:55.229Z,65.33
2019-04-22T00:06:44.264Z,64.55
2019-04-22T00:09:17.728Z,64.45
2019-04-22T00:11:52.935Z,64.79
2019-04-22T00:14:14.803Z,64.39
2019-04-22T00:17:07.234Z,65.61
2019-04-22T00:19:26.530Z,66.29
2019-04-22T00:22:00.499Z,66.73
2019-04-22T00:24:23.934Z,67.08
2019-04-22T00:26:59.985Z,66.45
2019-04-22T00:29:42.483Z,67.39
2019-04-22T00:32:27.232Z,67.83
2019-04-22T00:34:53.627Z,67.54
2019-04-22T00:37:28.572Z,70.33
2019-04-22T00:39:57.286Z,69.10
2019-04-22T00:47:36.708Z,70.62
2019-04-22T00:50:14.487Z,72.00
2019-04-22T00:52:34.087Z,71.09
2019-04-22T00:55:10.259Z,72.19
2019-04-22T00:57:35.843Z,72.04
2019-04-22T01:00:05.532Z,72.65
2019-04-22T01:02:46.096Z,72.20
2019-04-22T01:05:09.218Z,72.42
2019-04-22T01:07:36.899Z,72.22
2019-04-22T01:10:15.028Z,72.43
2019-04-22T01:12:39.989Z,72.86
2019-04-22T01:15:15.845Z,73.22
2019-04-22T01:17:43.507Z,73.39
2019-04-22T01:20:17.497Z,73.20
2019-04-22T01:22:39.313Z,73.59
2019-04-22T01:25:08.590Z,72.81
2019-04-22T01:27:41.493Z,73.13
2019-04-22T01:30:07.245Z,72.93
2019-04-22T01:32:31.113Z,72.69
2019-04-22T01:35:11.221Z,72.72
2019-04-22T01:37:45.522Z,72.79
2019-04-22T01:40:25.375Z,73.01
2019-04-22T01:42:55.846Z,72.56
2019-04-22T01:45:25.746Z,73.13
2019-04-22T01:47:55.186Z,73.42
2019-04-22T01:50:27.224Z,73.29
2019-04-22T01:53:01.987Z,72.44
2019-04-22T01:55:32.404Z,72.67
2019-04-22T01:57:53.659Z,72.18
2019-04-22T02:00:25.125Z,72.02
2019-04-22T02:03:04.438Z,72.16
2019-04-22T02:05:31.531Z,72.09
2019-04-22T02:08:06.774Z,71.76
2019-04-22T02:10:39.224Z,71.52
2019-04-22T02:13:06.702Z,71.94
2019-04-22T02:15:39.656Z,70.83
2019-04-22T02:18:11.030Z,71.23
2019-04-22T02:20:40.697Z,71.65
2019-04-22T02:26:02.459Z,72.15
2019-04-22T02:28:34.210Z,71.90
2019-04-22T02:36:19.750Z,72.58
2019-04-22T02:46:23.035Z,72.87
2019-04-22T02:48:54.040Z,72.51
2019-04-22T02:51:11.639Z,72.38
2019-04-22T02:58:58.758Z,72.34
2019-04-22T03:01:30.101Z,72.40
2019-04-22T03:06:24.424Z,71.35
2019-04-22T03:11:18.949Z,71.73
2019-04-22T03:13:59.868Z,71.26
2019-04-22T03:18:55.039Z,71.38
2019-04-22T03:21:17.907Z,71.28
2019-04-22T03:24:14.295Z,72.33
2019-04-22T03:26:27.620Z,72.35
2019-04-22T03:28:51.280Z,73.26
2019-04-22T03:47:11.324Z,74.48
2019-04-22T03:54:39.994Z,74.97
2019-04-22T03:59:41.280Z,75.49
2019-04-22T04:14:47.051Z,72.72
2019-04-22T04:19:58.661Z,71.85
2019-04-22T04:22:26.694Z,71.42
2019-04-22T04:27:36.252Z,71.18
2019-04-22T04:30:02.764Z,70.57
2019-04-22T04:35:07.674Z,69.53
2019-04-22T04:39:59.819Z,69.08
2019-04-22T04:47:35.788Z,67.57
2019-04-22T04:55:06.750Z,63.88
2019-04-22T05:00:22.046Z,61.88
2019-04-22T05:02:30.887Z,61.82
2019-04-22T05:05:06.458Z,59.47
2019-04-22T05:10:03.890Z,53.88
2019-04-22T05:12:55.714Z,50.96
2019-04-22T05:15:03.970Z,48.89
2019-04-22T05:20:05.263Z,47.31
2019-04-22T05:24:58.278Z,45.30
2019-04-22T05:27:34.111Z,42.43
2019-04-22T05:30:19.866Z,41.32
2019-04-22T05:35:00.600Z,37.95
2019-04-22T05:37:34.206Z,39.34
2019-04-22T05:40:14.970Z,37.78
2019-04-22T05:42:32.262Z,36.43
2019-04-22T05:45:03.269Z,36.50
2019-04-22T05:47:35.237Z,36.99
2019-04-22T05:50:06.490Z,36.39
2019-04-22T05:52:31.664Z,34.00
2019-04-22T05:55:08.366Z,33.61
2019-04-22T05:57:40.383Z,34.13
2019-04-22T06:00:14.568Z,32.24
2019-04-22T06:02:57.170Z,32.88
2019-04-22T06:05:10.085Z,32.96
2019-04-22T06:07:38.565Z,31.32
2019-04-22T06:10:22.922Z,31.70
2019-04-22T06:12:40.413Z,30.46
2019-04-22T06:15:18.429Z,29.93
2019-04-22T06:17:55.111Z,29.76
2019-04-22T06:20:21.953Z,29.22
2019-04-22T06:22:58.497Z,26.82
2019-04-22T06:25:33.781Z,26.92
2019-04-22T06:27:54.417Z,26.73
2019-04-22T06:30:28.427Z,26.31
2019-04-22T06:32:59.038Z,27.90
2019-04-22T06:35:33.792Z,26.80
2019-04-22T06:40:29.723Z,27.79
2019-04-22T06:45:30.890Z,26.30
2019-04-22T06:48:08.102Z,24.95
2019-04-22T06:53:03.061Z,25.63
2019-04-22T06:55:35.741Z,25.71
2019-04-22T06:58:04.808Z,26.36
2019-04-22T07:00:38.382Z,25.96
2019-04-22T07:08:16.271Z,25.81
2019-04-22T07:10:42.665Z,26.10
2019-04-22T07:13:13.289Z,25.77
2019-04-22T07:20:48.091Z,26.41
2019-04-22T07:23:13.832Z,25.75
2019-04-22T07:30:44.797Z,25.95
2019-04-22T07:33:27.877Z,25.93
2019-04-22T07:35:57.483Z,25.71
2019-04-22T07:38:25.614Z,26.21
2019-04-22T07:40:52.006Z,26.60
2019-04-22T07:43:27.979Z,27.03
2019-04-22T07:45:49.176Z,28.11
2019-04-22T07:53:23.284Z,29.80
2019-04-22T07:55:55.446Z,30.41
2019-04-22T07:58:24.110Z,30.46
2019-04-22T08:00:59.120Z,30.21
2019-04-22T08:03:51.673Z,30.52
2019-04-22T08:06:08.600Z,30.90
2019-04-22T08:11:08.949Z,30.44
2019-04-22T08:13:31.106Z,30.13
2019-04-22T08:18:35.995Z,30.95
2019-04-22T08:23:39.381Z,30.63
2019-04-22T08:26:00.982Z,31.14
2019-04-22T08:28:42.796Z,31.47
2019-04-22T08:31:07.622Z,31.17
2019-04-22T08:33:35.380Z,31.30
2019-04-22T08:38:42.984Z,30.84
2019-04-22T08:41:27.338Z,30.62
2019-04-22T08:43:57.799Z,30.63
2019-04-22T08:46:27.413Z,29.72
2019-04-22T08:48:57.728Z,30.52
2019-04-22T08:51:25.274Z,29.46
2019-04-22T08:53:59.822Z,29.58
2019-04-22T08:56:35.189Z,29.96
2019-04-22T08:59:02.029Z,29.42
2019-04-22T09:01:31.449Z,28.82
2019-04-22T09:04:04.120Z,29.37
2019-04-22T09:16:41.361Z,29.06
2019-04-22T09:19:10.841Z,29.36
2019-04-22T09:21:37.773Z,29.21
2019-04-22T09:24:10.587Z,28.26
2019-04-22T09:26:42.039Z,29.16
2019-04-22T09:29:16.170Z,29.65
2019-04-22T09:32:01.040Z,29.80
2019-04-22T09:34:06.487Z,29.15
2019-04-22T09:36:41.943Z,29.35
2019-04-22T09:39:17.359Z,29.08
2019-04-22T09:41:48.324Z,29.49
2019-04-22T09:44:08.102Z,29.84
2019-04-22T09:46:46.749Z,29.87
2019-04-22T09:49:18.916Z,28.62
2019-04-22T09:51:44.868Z,28.71
2019-04-22T09:54:22.065Z,28.87
2019-04-22T09:56:49.404Z,28.83
2019-04-22T09:59:23.794Z,29.16
2019-04-22T10:01:59.688Z,29.82
2019-04-22T10:04:20.185Z,30.59
2019-04-22T10:06:45.650Z,31.37
2019-04-22T10:11:52.354Z,38.24
2019-04-22T10:14:28.468Z,38.54
2019-04-22T10:16:57.981Z,35.89
2019-04-22T10:19:23.488Z,39.57
2019-04-22T10:24:24.513Z,38.19
2019-04-22T10:26:59.466Z,38.86
2019-04-22T10:29:40.404Z,38.54
2019-04-22T10:32:00.696Z,38.66
2019-04-22T10:34:16.709Z,40.35
2019-04-22T10:36:37.698Z,40.41
2019-04-22T10:39:08.568Z,40.78
2019-04-22T10:41:38.943Z,42.05
2019-04-22T10:44:08.786Z,40.42
2019-04-22T10:46:38.262Z,42.04
2019-04-22T10:49:08.364Z,42.42
2019-04-22T10:51:37.622Z,41.95
2019-04-22T10:54:07.414Z,40.07
2019-04-22T10:56:36.933Z,39.65
2019-04-22T10:59:06.810Z,40.06
2019-04-22T11:01:38.524Z,39.13
2019-04-22T11:04:07.027Z,40.34
2019-04-22T11:06:40.914Z,40.27
2019-04-22T11:09:08.675Z,41.01
2019-04-22T11:11:48.753Z,41.39
2019-04-22T11:14:10.672Z,41.26
2019-04-22T11:16:39.859Z,41.59
2019-04-22T11:19:09.835Z,41.80
2019-04-22T11:21:38.967Z,43.54
2019-04-22T11:24:08.519Z,43.46
2019-04-22T11:26:38.836Z,43.60
2019-04-22T11:29:09.750Z,42.56
2019-04-22T11:31:39.027Z,41.88
2019-04-22T11:34:08.902Z,40.95
2019-04-22T11:36:38.942Z,39.97
2019-04-22T11:39:11.158Z,41.23
2019-04-22T11:41:40.232Z,41.58
2019-04-22T11:44:11.395Z,40.81
2019-04-22T11:46:41.119Z,40.75
2019-04-22T11:49:10.322Z,40.72
2019-04-22T11:51:40.203Z,40.60
2019-04-22T11:54:10.633Z,40.64
2019-04-22T11:56:40.946Z,40.84
2019-04-22T11:59:10.930Z,40.92
2019-04-22T12:01:40.277Z,41.45
2019-04-22T12:04:09.782Z,41.09
2019-04-22T12:06:40.107Z,41.69
2019-04-22T12:09:12.448Z,40.98
2019-04-22T12:11:41.618Z,40.87
2019-04-22T12:14:11.790Z,42.42
2019-04-22T12:16:41.360Z,41.40
2019-04-22T12:19:11.337Z,39.60
2019-04-22T12:21:41.321Z,40.04
2019-04-22T12:24:10.949Z,40.92
2019-04-22T12:26:40.158Z,40.50
2019-04-22T12:29:10.980Z,40.30
2019-04-22T12:31:41.885Z,39.76
2019-04-22T12:34:11.338Z,41.30
2019-04-22T12:36:40.490Z,41.74
2019-04-22T12:39:11.429Z,40.51
2019-04-22T12:41:42.223Z,40.70
2019-04-22T12:44:11.738Z,41.44
2019-04-22T12:46:42.039Z,40.47
2019-04-22T12:49:12.142Z,39.35
2019-04-22T12:51:41.229Z,39.86
2019-04-22T12:54:10.974Z,39.77
2019-04-22T12:56:41.790Z,40.06
2019-04-22T12:59:11.744Z,40.05
2019-04-22T13:01:40.925Z,40.72
2019-04-22T13:04:13.647Z,40.78
2019-04-22T13:09:21.283Z,39.09
2019-04-22T13:11:51.021Z,39.49
2019-04-22T13:14:21.114Z,39.89
2019-04-22T13:16:51.206Z,39.98
2019-04-22T13:19:21.498Z,40.08
2019-04-22T13:21:51.448Z,40.24
2019-04-22T13:24:21.749Z,40.71
2019-04-22T13:26:50.904Z,40.68
2019-04-22T13:29:21.294Z,40.64
2019-04-22T13:31:50.920Z,41.06
2019-04-22T13:34:29.634Z,39.98
2019-04-22T13:36:50.750Z,40.11
2019-04-22T13:39:20.866Z,40.16
2019-04-22T13:41:54.537Z,40.44
2019-04-22T13:44:21.110Z,40.38
2019-04-22T13:47:08.552Z,40.42
2019-04-22T13:50:08.135Z,40.08
2019-04-22T13:52:21.067Z,40.48
2019-04-22T13:55:02.759Z,40.26
2019-04-22T13:57:09.031Z,39.64
2019-04-22T13:59:35.961Z,39.38
2019-04-22T14:02:14.664Z,39.45
2019-04-22T14:04:44.588Z,39.84
2019-04-22T14:07:14.754Z,39.73
2019-04-22T14:09:44.519Z,40.25
2019-04-22T14:12:15.797Z,40.23
2019-04-22T14:14:45.838Z,40.67
2019-04-22T14:17:16.682Z,41.06
2019-04-22T14:19:46.597Z,41.56
2019-04-22T14:22:16.020Z,41.87
2019-04-22T14:24:45.094Z,42.02
2019-04-22T14:27:27.853Z,42.05
2019-04-22T14:29:44.986Z,42.26
2019-04-22T14:32:19.320Z,42.80
2019-04-22T14:34:44.982Z,43.37
2019-04-22T14:37:14.274Z,43.59
2019-04-22T14:39:44.103Z,43.92
2019-04-22T14:42:36.345Z,44.03
2019-04-22T14:45:18.824Z,44.35
2019-04-22T14:47:45.674Z,44.40
2019-04-22T14:50:04.912Z,44.36
2019-04-22T14:52:44.424Z,43.90
2019-04-22T14:54:57.766Z,43.56
2019-04-22T14:57:19.236Z,43.50
2019-04-22T14:59:48.363Z,43.45
2019-04-22T15:02:19.585Z,43.07
2019-04-22T15:04:50.055Z,43.22
2019-04-22T15:07:19.353Z,43.21
2019-04-22T15:09:48.359Z,42.84
2019-04-22T15:12:27.757Z,42.74
2019-04-22T15:14:48.138Z,42.87
2019-04-22T15:17:31.209Z,43.59
2019-04-22T15:20:19.673Z,43.49
2019-04-22T15:22:50.518Z,43.90
2019-04-22T15:25:20.684Z,44.48
2019-04-22T15:27:51.218Z,44.68
2019-04-22T15:30:21.445Z,44.72
2019-04-22T15:32:51.619Z,45.18
2019-04-22T15:35:20.878Z,45.28
2019-04-22T15:37:51.141Z,45.75
2019-04-22T15:40:20.655Z,46.23
2019-04-22T15:42:50.735Z,46.49
2019-04-22T15:45:20.539Z,46.54
2019-04-22T15:47:52.252Z,47.02
2019-04-22T15:50:22.491Z,47.50
2019-04-22T15:52:55.180Z,48.28
2019-04-22T15:55:22.861Z,48.37
2019-04-22T15:57:52.091Z,48.59
2019-04-22T16:00:36.750Z,49.29
2019-04-22T16:02:52.105Z,49.73
2019-04-22T16:05:22.535Z,50.18
2019-04-22T16:07:53.035Z,50.41
2019-04-22T16:10:22.250Z,50.52
2019-04-22T16:12:57.592Z,50.39
2019-04-22T16:15:22.607Z,50.15
2019-04-22T16:17:53.018Z,50.43
2019-04-22T16:20:23.283Z,50.49
2019-04-22T16:23:03.487Z,51.14
2019-04-22T16:26:05.131Z,51.36
2019-04-22T16:28:35.380Z,51.79
2019-04-22T16:31:04.684Z,52.06
2019-04-22T16:33:36.562Z,52.41
2019-04-22T16:36:04.792Z,52.35
2019-04-22T16:38:35.132Z,52.21
2019-04-22T16:41:04.310Z,52.56
2019-04-22T16:43:33.379Z,52.52
2019-04-22T16:46:03.353Z,52.83
2019-04-22T16:48:33.693Z,52.70
2019-04-22T16:51:04.119Z,52.99
2019-04-22T16:53:34.917Z,53.25
2019-04-22T16:56:04.809Z,53.42
2019-04-22T16:58:34.735Z,53.31
2019-04-22T17:01:07.008Z,53.53
2019-04-22T17:03:44.645Z,53.73
2019-04-22T17:06:17.477Z,53.91
2019-04-22T17:08:46.753Z,54.20
2019-04-22T17:11:16.165Z,54.16
2019-04-22T17:13:46.168Z,54.10
2019-04-22T17:16:16.113Z,54.84
2019-04-22T17:18:47.121Z,54.94
2019-04-22T17:21:17.528Z,54.79
2019-04-22T17:23:47.575Z,54.89
2019-04-22T17:26:16.869Z,55.46
2019-04-22T17:28:45.943Z,55.42
2019-04-22T17:31:16.268Z,55.63
2019-04-22T17:33:46.699Z,55.55
2019-04-22T17:36:16.362Z,55.67
2019-04-22T17:38:55.042Z,55.94
2019-04-22T17:41:28.569Z,56.02
2019-04-22T17:44:16.909Z,56.34
2019-04-22T17:46:46.336Z,56.97
2019-04-22T17:49:34.354Z,56.71
2019-04-22T17:52:16.934Z,57.21
2019-04-22T17:54:43.454Z,57.47
2019-04-22T17:57:15.359Z,57.54
2019-04-22T17:59:42.098Z,57.56
2019-04-22T18:02:11.509Z,57.69
2019-04-22T18:04:33.773Z,57.83
2019-04-22T18:07:23.421Z,58.09
2019-04-22T18:12:25.855Z,58.56
2019-04-22T18:14:54.782Z,58.61
2019-04-22T18:17:27.269Z,58.93
2019-04-22T18:19:51.871Z,59.09
2019-04-22T18:22:20.311Z,59.50
2019-04-22T18:24:51.158Z,59.76
2019-04-22T18:27:42.998Z,59.88
2019-04-22T18:29:51.755Z,60.22
2019-04-22T18:32:21.780Z,60.23
2019-04-22T18:34:51.659Z,60.37
2019-04-22T18:37:24.915Z,60.64
2019-04-22T18:40:02.187Z,60.73
2019-04-22T18:42:27.104Z,60.75
2019-04-22T18:45:24.695Z,60.97
2019-04-22T18:47:35.494Z,60.88
2019-04-22T18:50:00.765Z,60.78
2019-04-22T18:53:19.544Z,61.04
2019-04-22T18:55:36.023Z,60.67
2019-04-22T18:58:13.674Z,60.73
2019-04-22T19:00:29.398Z,60.90
2019-04-22T19:03:04.874Z,60.93
2019-04-22T19:05:45.417Z,60.68
2019-04-22T19:08:23.337Z,60.75
2019-04-22T19:11:11.179Z,60.99
2019-04-22T19:16:01.463Z,60.95
2019-04-22T19:18:29.808Z,61.16
2019-04-22T19:21:02.645Z,61.52
2019-04-22T19:23:28.093Z,61.33
2019-04-22T19:25:59.134Z,61.61
2019-04-22T19:31:02.789Z,62.01
2019-04-22T19:33:34.959Z,62.29
2019-04-22T19:35:59.275Z,62.49
2019-04-22T19:38:21.962Z,62.61
2019-04-22T19:41:08.072Z,63.13
2019-04-22T19:43:32.805Z,63.49
2019-04-22T19:46:02.255Z,63.79
2019-04-22T19:48:39.261Z,63.90
2019-04-22T19:51:12.792Z,64.33
2019-04-22T19:53:43.876Z,64.49
2019-04-22T19:56:05.960Z,64.77
2019-04-22T19:58:38.076Z,64.88
2019-04-22T20:01:30.923Z,64.48
2019-04-22T20:04:16.531Z,65.30
2019-04-22T20:06:45.523Z,65.47
2019-04-22T20:09:20.650Z,65.62
2019-04-22T20:11:43.674Z,66.35
2019-04-22T20:14:16.884Z,66.68
2019-04-22T20:16:46.259Z,67.12
2019-04-22T20:19:25.227Z,67.72
2019-04-22T20:21:51.215Z,67.70
2019-04-22T20:24:10.273Z,68.12
2019-04-22T20:26:59.486Z,68.74
2019-04-22T20:29:25.760Z,68.78
2019-04-22T20:31:54.605Z,68.94
2019-04-22T20:34:23.894Z,69.33
2019-04-22T20:39:33.519Z,69.46
2019-04-22T20:42:05.647Z,69.85
2019-04-22T20:44:37.828Z,69.77
2019-04-22T20:46:57.316Z,70.28
2019-04-22T20:49:31.003Z,70.24
2019-04-22T20:52:06.360Z,70.50
2019-04-22T20:54:34.909Z,70.41
2019-04-22T20:57:05.829Z,70.42
2019-04-22T20:59:33.381Z,70.36
2019-04-22T21:02:03.123Z,70.27
2019-04-22T21:04:26.088Z,70.33
2019-04-22T21:07:03.717Z,70.28
2019-04-22T21:09:33.350Z,70.25
2019-04-22T21:12:07.684Z,69.88
2019-04-22T21:14:32.411Z,69.86
2019-04-22T21:17:13.890Z,69.81
2019-04-22T21:19:52.920Z,69.71
2019-04-22T21:22:19.409Z,69.68
2019-04-22T21:24:42.155Z,69.41
2019-04-22T21:27:14.113Z,69.57
2019-04-22T21:29:39.958Z,69.52
2019-04-22T21:32:13.605Z,69.54
2019-04-22T21:34:52.737Z,69.06
2019-04-22T21:37:20.559Z,69.60
2019-04-22T21:39:44.735Z,69.78
2019-04-22T21:42:15.667Z,69.53
2019-04-22T21:44:44.034Z,69.90
2019-04-22T21:47:23.898Z,70.19
2019-04-22T21:50:10.217Z,70.18
2019-04-22T21:52:24.452Z,70.00
2019-04-22T21:55:00.852Z,70.38
2019-04-22T21:58:04.844Z,70.45
2019-04-22T22:00:41.116Z,70.79
2019-04-22T22:03:02.202Z,71.04
2019-04-22T22:05:26.561Z,71.54
2019-04-22T22:07:50.864Z,71.13
2019-04-22T22:10:36.985Z,70.96
2019-04-22T22:13:05.187Z,71.20
2019-04-22T22:15:37.651Z,71.79
2019-04-22T22:18:02.121Z,71.70
2019-04-22T22:20:45.324Z,72.04
2019-04-22T22:23:18.626Z,71.93
2019-04-22T22:25:34.282Z,72.28
2019-04-22T22:28:26.051Z,72.20
2019-04-22T22:30:51.399Z,71.99
2019-04-22T22:33:10.441Z,71.89
2019-04-22T22:35:40.506Z,71.48
2019-04-22T22:38:13.406Z,72.32
2019-04-22T22:40:27.640Z,72.09
2019-04-22T22:42:56.975Z,72.37
2019-04-22T22:45:33.796Z,71.87
2019-04-22T22:48:21.745Z,72.51
2019-04-22T22:50:43.169Z,72.65
2019-04-22T22:53:29.213Z,72.30
2019-04-22T22:55:44.339Z,72.61
2019-04-22T22:58:23.274Z,72.39
2019-04-22T23:00:44.664Z,72.18
2019-04-22T23:05:59.041Z,72.76
2019-04-22T23:08:25.755Z,72.86
2019-04-22T23:11:03.523Z,73.00
2019-04-22T23:15:50.829Z,72.93
2019-04-22T23:18:07.715Z,72.73
2019-04-22T23:20:41.795Z,73.13
2019-04-22T23:23:25.799Z,72.92
2019-04-22T23:26:00.642Z,73.36
2019-04-22T23:28:40.100Z,73.09
2019-04-22T23:31:23.681Z,73.13
2019-04-22T23:34:06.744Z,73.14
2019-04-22T23:36:49.887Z,72.91
2019-04-22T23:39:37.277Z,73.04
2019-04-22T23:42:06.121Z,72.99
2019-04-22T23:44:32.489Z,72.64
2019-04-22T23:47:01.588Z,72.95
2019-04-22T23:49:29.706Z,72.95
2019-04-22T23:52:11.412Z,72.66
2019-04-22T23:54:44.935Z,72.64
2019-04-22T23:57:08.467Z,72.85
